Portada
METAR-TAF:

METAR-TAF

Aeroports :

Sendai, Japó

latitud: 38-08N, longitud: 140-55E, altitud: 1 m

Observació

L'informe es va fer fa 7 hores i 56 minuts, a les 12:00 UTC
Vent 5 kt del Sud/Sud-Est
Temperatura 24°C
Humitat 94%
Pressió 1013 hPa
Visibilitat 10 km o més
Escasses núvols a una alçada de 400 ft
Cel ennuvolat a una alçada de 600 ft

METAR: RJSS 031200Z 16005KT 9999 FEW004 BKN006 24/23 Q1013

Hora: 04:56 (19:56 UTC)

Pronòstic

L'informe es va fer fa 2 hores i 51 minuts, a les 17:05 UTC
Pronòstic vàlid del 03 a les 18 UTC al 05 a les 00 UTC
Vent 4 kt del Oest/Nord-Oest
Visibilitat 10 km o més
Escasses núvols a una alçada de 1000 ft
Núvols disperses a una alçada de 3000 ft
Evolucionant progressivament
l' 03 a les 21 UTC al 03 a les 23 UTC
Vent 8 kt del Sud-Est

TAF: RJSS 031705Z 0318/0500 29004KT 9999 FEW010 SCT030 BECMG 0321/0323 14008KT

Observacions i pronòstics meteorològics de més de 4000 aeroports (METAR i TAF).

Les estacions disponibles són els punts grocs i vermells al mapa.

Posi el ratolí al punt desitjat per veure el nom de l'estació.

Feu clic per veure les observacions i els pronòstics meteorològics.

Per canviar el mapa: feu clic els botons verds amb una creu de color negre per apropar; al botó verd amb un guió per allunyar la imatge; o en les fletxes verdes per a mapes adjacents.


METAR-TAF: